createdAt,value
2023-05-19T00:01:17.556Z,5.50
2023-05-19T00:03:54.744Z,4.20
2023-05-19T00:06:25.533Z,4.90
2023-05-19T00:09:01.741Z,4.63
2023-05-19T00:11:29.503Z,18.07
2023-05-19T00:13:57.537Z,7.77
2023-05-19T00:16:25.788Z,4.37
2023-05-19T00:18:54.229Z,3.47
2023-05-19T00:21:21.610Z,4.67
2023-05-19T00:23:49.106Z,5.50
2023-05-19T00:26:16.278Z,4.90
2023-05-19T00:28:43.481Z,4.40
2023-05-19T00:31:10.673Z,4.83
2023-05-19T00:33:37.844Z,4.40
2023-05-19T00:36:05.831Z,4.60
2023-05-19T00:38:33.884Z,4.50
2023-05-19T00:41:01.520Z,4.40
2023-05-19T00:43:30.188Z,4.90
2023-05-19T00:45:57.879Z,3.90
2023-05-19T00:48:25.722Z,3.97
2023-05-19T00:50:54.809Z,3.77
2023-05-19T00:53:23.454Z,3.90
2023-05-19T00:55:51.129Z,4.03
2023-05-19T00:58:19.238Z,4.27
2023-05-19T01:00:46.787Z,4.50
2023-05-19T01:03:15.137Z,4.33
2023-05-19T01:05:44.777Z,4.87
2023-05-19T01:08:12.116Z,4.70
2023-05-19T01:10:39.331Z,4.60
2023-05-19T01:13:07.269Z,3.73
2023-05-19T01:15:37.004Z,4.03
2023-05-19T01:18:08.511Z,4.30
2023-05-19T01:20:46.650Z,4.60
2023-05-19T01:23:36.636Z,5.33
2023-05-19T01:26:03.940Z,4.40
2023-05-19T01:28:49.910Z,4.60
2023-05-19T01:31:17.726Z,3.93
2023-05-19T01:33:45.636Z,4.10
2023-05-19T01:36:13.024Z,4.97
2023-05-19T01:38:40.800Z,4.73
2023-05-19T01:41:08.791Z,4.50
2023-05-19T01:43:36.524Z,4.17
2023-05-19T01:46:03.905Z,4.37
2023-05-19T01:48:31.294Z,4.03
2023-05-19T01:50:58.802Z,4.87
2023-05-19T01:53:26.420Z,4.50
2023-05-19T01:55:54.250Z,4.53
2023-05-19T01:58:40.023Z,4.17
2023-05-19T02:01:07.224Z,4.33
2023-05-19T02:03:52.804Z,4.87
2023-05-19T02:06:29.198Z,4.30
2023-05-19T02:09:05.703Z,4.17
2023-05-19T02:11:40.708Z,4.77
2023-05-19T02:14:14.503Z,4.40
2023-05-19T02:16:43.701Z,5.80
2023-05-19T02:19:20.756Z,4.27
2023-05-19T02:21:48.007Z,5.20
2023-05-19T02:24:16.446Z,4.90
2023-05-19T02:26:44.005Z,5.00
2023-05-19T02:29:11.213Z,4.93
2023-05-19T02:31:38.419Z,3.87
2023-05-19T02:34:05.750Z,4.80
2023-05-19T02:36:37.740Z,4.80
2023-05-19T02:39:04.721Z,4.50
2023-05-19T02:41:31.712Z,5.37
2023-05-19T02:43:58.540Z,4.70
2023-05-19T02:46:25.550Z,5.53
2023-05-19T02:48:53.171Z,5.03
2023-05-19T02:51:20.354Z,4.23
2023-05-19T02:53:47.574Z,5.13
2023-05-19T02:56:14.805Z,5.00
2023-05-19T02:58:43.234Z,4.60
2023-05-19T03:01:11.106Z,5.47
2023-05-19T03:03:38.108Z,4.30
2023-05-19T03:06:08.706Z,4.63
2023-05-19T03:08:36.387Z,5.17
2023-05-19T03:11:03.969Z,4.97
2023-05-19T03:13:30.848Z,5.50
2023-05-19T03:15:59.264Z,4.63
2023-05-19T03:18:28.992Z,4.90
2023-05-19T03:20:56.559Z,6.63
2023-05-19T03:23:23.539Z,5.43
2023-05-19T03:25:50.884Z,5.40
2023-05-19T03:28:17.714Z,5.57
2023-05-19T03:30:44.574Z,5.50
2023-05-19T03:33:11.833Z,5.83
2023-05-19T03:35:38.720Z,5.73
2023-05-19T03:38:05.667Z,5.83
2023-05-19T03:40:32.673Z,6.23
2023-05-19T03:43:01.015Z,5.50
2023-05-19T03:45:28.395Z,7.13
2023-05-19T03:47:56.501Z,5.87
2023-05-19T03:50:23.466Z,6.13
2023-05-19T03:52:50.405Z,5.83
2023-05-19T03:55:20.213Z,5.60
2023-05-19T03:57:48.679Z,6.27
2023-05-19T04:00:16.658Z,6.67
2023-05-19T04:02:43.956Z,5.97
2023-05-19T04:05:11.551Z,7.10
2023-05-19T04:07:38.847Z,6.23
2023-05-19T04:10:06.670Z,5.80
2023-05-19T04:12:33.953Z,5.97
2023-05-19T04:15:01.190Z,5.83
2023-05-19T04:17:28.495Z,5.97
2023-05-19T04:19:55.929Z,6.93
2023-05-19T04:22:23.248Z,6.40
2023-05-19T04:24:51.860Z,7.93
2023-05-19T04:27:19.550Z,6.23
2023-05-19T04:29:48.400Z,6.67
2023-05-19T04:32:17.560Z,6.53
2023-05-19T04:34:48.049Z,6.53
2023-05-19T04:37:16.376Z,6.27
2023-05-19T04:39:45.377Z,6.77
2023-05-19T04:42:13.354Z,5.60
2023-05-19T04:44:42.065Z,6.17
2023-05-19T04:47:09.378Z,6.57
2023-05-19T04:49:40.105Z,5.37
2023-05-19T04:52:11.743Z,7.17
2023-05-19T04:54:40.078Z,6.97
2023-05-19T04:57:07.537Z,6.57
2023-05-19T04:59:34.851Z,6.33
2023-05-19T05:02:02.158Z,6.43
2023-05-19T05:04:29.498Z,6.37
2023-05-19T05:06:56.738Z,6.73
2023-05-19T05:09:23.896Z,6.43
2023-05-19T05:11:51.670Z,6.77
2023-05-19T05:14:19.097Z,6.80
2023-05-19T05:16:47.200Z,6.67
2023-05-19T05:19:14.727Z,6.20
2023-05-19T05:21:43.251Z,6.10
2023-05-19T05:24:10.873Z,6.70
2023-05-19T05:26:38.282Z,5.97
2023-05-19T05:29:05.571Z,6.47
2023-05-19T05:31:32.798Z,6.83
2023-05-19T05:34:00.226Z,6.07
2023-05-19T05:36:27.477Z,6.57
2023-05-19T05:38:54.732Z,6.77
2023-05-19T05:41:22.184Z,6.13
2023-05-19T05:43:49.389Z,6.83
2023-05-19T05:46:17.616Z,5.70
2023-05-19T05:48:45.108Z,6.20
2023-05-19T05:51:12.501Z,17.20
2023-05-19T05:53:45.052Z,10.53
2023-05-19T05:56:12.705Z,7.37
2023-05-19T05:58:40.752Z,7.30
2023-05-19T06:01:11.328Z,8.50
2023-05-19T06:03:40.165Z,6.90
2023-05-19T06:06:07.495Z,6.67
2023-05-19T06:08:34.762Z,6.87
2023-05-19T06:11:04.118Z,8.67
2023-05-19T06:13:31.354Z,6.13
2023-05-19T06:16:00.455Z,6.33
2023-05-19T06:18:29.286Z,5.20
2023-05-19T06:20:56.512Z,6.90
2023-05-19T06:23:25.313Z,5.90
2023-05-19T06:25:52.525Z,7.97
2023-05-19T06:28:19.731Z,6.27
2023-05-19T06:30:46.953Z,5.00
2023-05-19T06:33:14.188Z,5.50
2023-05-19T06:35:41.391Z,5.43
2023-05-19T06:38:08.586Z,5.00
2023-05-19T06:40:37.040Z,5.77
2023-05-19T06:43:04.943Z,5.63
2023-05-19T06:45:32.215Z,5.17
2023-05-19T06:47:59.557Z,5.90
2023-05-19T06:50:26.904Z,5.53
2023-05-19T06:52:54.089Z,6.10
2023-05-19T06:55:21.327Z,5.73
2023-05-19T06:57:48.512Z,5.10
2023-05-19T07:00:18.302Z,5.00
2023-05-19T07:02:47.248Z,4.97
2023-05-19T07:05:14.920Z,5.60
2023-05-19T07:07:42.639Z,4.57
2023-05-19T07:10:10.511Z,4.90
2023-05-19T07:12:37.758Z,4.57
2023-05-19T07:15:05.200Z,4.67
2023-05-19T07:17:32.483Z,3.87
2023-05-19T07:20:00.922Z,4.50
2023-05-19T07:22:28.451Z,4.23
2023-05-19T07:24:57.130Z,4.70
2023-05-19T07:27:24.483Z,4.20
2023-05-19T07:29:51.734Z,4.67
2023-05-19T07:32:19.107Z,5.17
2023-05-19T07:34:46.324Z,4.47
2023-05-19T07:37:13.598Z,4.37
2023-05-19T07:39:40.750Z,3.57
2023-05-19T07:42:07.948Z,4.53
2023-05-19T07:44:35.219Z,4.60
2023-05-19T07:47:02.726Z,9.43
2023-05-19T07:49:29.977Z,6.43
2023-05-19T07:51:57.861Z,3.80
2023-05-19T07:54:25.237Z,4.33
2023-05-19T07:56:52.493Z,4.33
2023-05-19T07:59:19.984Z,4.20
2023-05-19T08:01:47.241Z,3.80
2023-05-19T08:04:14.592Z,3.60
2023-05-19T08:06:44.247Z,3.17
2023-05-19T08:09:12.037Z,2.63
2023-05-19T08:11:39.301Z,2.97
2023-05-19T08:14:06.518Z,3.65
2023-05-19T08:16:33.703Z,4.13
2023-05-19T08:19:02.769Z,6.22
2023-05-19T08:21:30.120Z,7.40
2023-05-19T08:23:57.578Z,3.47
2023-05-19T08:26:24.770Z,3.28
2023-05-19T08:28:52.049Z,3.38
2023-05-19T08:31:19.539Z,3.63
2023-05-19T08:33:46.800Z,4.65
2023-05-19T08:36:14.119Z,2.40
2023-05-19T08:38:41.346Z,1.85
2023-05-19T08:41:08.820Z,2.40
2023-05-19T08:43:36.065Z,3.20
2023-05-19T08:46:06.336Z,2.25
2023-05-19T08:48:34.066Z,3.00
2023-05-19T08:51:11.739Z,2.75
2023-05-19T08:53:43.950Z,2.40
2023-05-19T08:56:21.795Z,1.90
2023-05-19T08:58:50.088Z,2.08
2023-05-19T09:01:17.492Z,2.17
2023-05-19T09:03:45.448Z,2.20
2023-05-19T09:06:13.206Z,3.78
2023-05-19T09:08:41.224Z,2.30
2023-05-19T09:11:08.800Z,4.22
2023-05-19T09:13:36.069Z,3.03
2023-05-19T09:16:03.812Z,2.58
2023-05-19T09:18:31.291Z,2.08
2023-05-19T09:21:00.412Z,2.47
2023-05-19T09:23:32.569Z,2.00
2023-05-19T09:26:02.166Z,2.00
2023-05-19T09:28:30.956Z,2.13
2023-05-19T09:31:04.947Z,5.53
2023-05-19T09:33:33.776Z,2.47
2023-05-19T09:36:01.246Z,2.28
2023-05-19T09:38:29.364Z,2.33
2023-05-19T09:40:58.015Z,2.03
2023-05-19T09:43:25.412Z,1.70
2023-05-19T09:46:06.661Z,1.50
2023-05-19T09:48:34.711Z,1.88
2023-05-19T09:51:02.417Z,2.17
2023-05-19T09:53:34.053Z,1.90
2023-05-19T09:56:03.399Z,3.38
2023-05-19T09:58:37.016Z,2.20
2023-05-19T10:01:04.965Z,2.00
2023-05-19T10:03:33.065Z,2.45
2023-05-19T10:06:01.660Z,1.77
2023-05-19T10:08:30.628Z,1.90
2023-05-19T10:10:58.356Z,1.77
2023-05-19T10:13:26.983Z,1.58
2023-05-19T10:15:59.059Z,2.00
2023-05-19T10:18:27.821Z,2.15
2023-05-19T10:20:54.820Z,1.88
2023-05-19T10:23:22.418Z,1.80
2023-05-19T10:25:52.380Z,2.30
2023-05-19T10:28:23.740Z,1.85
2023-05-19T10:30:53.647Z,2.05
2023-05-19T10:33:28.878Z,2.55
2023-05-19T10:36:17.507Z,2.08
2023-05-19T10:38:48.659Z,2.50
2023-05-19T10:41:39.809Z,2.53
2023-05-19T10:44:21.507Z,2.10
2023-05-19T10:46:48.948Z,2.50
2023-05-19T10:49:22.707Z,2.30
2023-05-19T10:51:50.081Z,2.33
2023-05-19T10:54:18.410Z,2.28
2023-05-19T10:56:48.561Z,2.28
2023-05-19T10:59:34.668Z,2.53
2023-05-19T11:02:09.290Z,2.15
2023-05-19T11:04:48.878Z,2.40
2023-05-19T11:07:19.623Z,2.03
2023-05-19T11:09:51.474Z,2.55
2023-05-19T11:12:24.734Z,2.38
2023-05-19T11:14:55.700Z,2.33
2023-05-19T11:17:25.704Z,2.55
2023-05-19T11:19:54.667Z,2.05
2023-05-19T11:22:26.519Z,2.28
2023-05-19T11:24:56.677Z,1.70
2023-05-19T11:27:34.105Z,1.73
2023-05-19T11:30:02.278Z,2.13
2023-05-19T11:32:31.949Z,2.00
2023-05-19T11:34:59.218Z,2.22
2023-05-19T11:37:26.950Z,2.00
2023-05-19T11:39:53.855Z,2.20
2023-05-19T11:42:20.958Z,2.17
2023-05-19T11:44:48.731Z,2.20
2023-05-19T11:47:17.219Z,2.53
2023-05-19T11:49:57.829Z,1.70
2023-05-19T11:52:25.604Z,1.83
2023-05-19T11:54:52.584Z,1.70
2023-05-19T11:57:20.104Z,1.58
2023-05-19T11:59:49.822Z,2.03
2023-05-19T12:02:26.006Z,1.60
2023-05-19T12:04:53.863Z,1.83
2023-05-19T12:07:23.517Z,2.35
2023-05-19T12:09:52.093Z,2.05
2023-05-19T12:12:21.384Z,1.55
2023-05-19T12:14:50.611Z,2.00
2023-05-19T12:17:24.313Z,2.83
2023-05-19T12:19:51.638Z,2.55
2023-05-19T12:22:19.348Z,2.10
2023-05-19T12:24:47.270Z,1.65
2023-05-19T12:27:18.174Z,2.33
2023-05-19T12:29:52.136Z,2.10
2023-05-19T12:32:19.761Z,2.38
2023-05-19T12:34:46.596Z,2.20
2023-05-19T12:37:13.968Z,2.05
2023-05-19T12:39:42.832Z,2.10
2023-05-19T12:42:11.323Z,1.80
2023-05-19T12:44:48.100Z,2.00
2023-05-19T12:47:16.831Z,2.20
2023-05-19T12:50:02.724Z,2.70
2023-05-19T12:52:30.643Z,2.25
2023-05-19T12:55:02.622Z,2.90
2023-05-19T12:57:32.577Z,2.42
2023-05-19T13:00:07.031Z,2.08
2023-05-19T13:02:36.145Z,3.90
2023-05-19T13:05:04.932Z,2.60
2023-05-19T13:07:32.233Z,2.45
2023-05-19T13:09:59.127Z,1.65
2023-05-19T13:12:26.237Z,2.38
2023-05-19T13:14:54.881Z,3.38
2023-05-19T13:17:22.584Z,2.22
2023-05-19T13:19:49.469Z,4.38
2023-05-19T13:22:16.463Z,2.60
2023-05-19T13:24:43.298Z,1.95
2023-05-19T13:27:10.129Z,2.20
2023-05-19T13:29:36.976Z,2.25
2023-05-19T13:32:04.063Z,1.75
2023-05-19T13:34:30.929Z,2.13
2023-05-19T13:36:57.790Z,1.98
2023-05-19T13:39:24.666Z,2.00
2023-05-19T13:41:51.567Z,2.63
2023-05-19T13:44:18.383Z,1.77
2023-05-19T13:46:47.052Z,2.25
2023-05-19T13:49:15.363Z,1.65
2023-05-19T13:51:44.152Z,1.80
2023-05-19T13:54:11.410Z,1.48
2023-05-19T13:56:38.698Z,2.10
2023-05-19T13:59:05.645Z,1.55
2023-05-19T14:01:32.932Z,2.40
2023-05-19T14:04:00.895Z,1.92
2023-05-19T14:06:28.173Z,1.90
2023-05-19T14:08:55.117Z,2.00
2023-05-19T14:11:22.707Z,1.75
2023-05-19T14:13:52.507Z,2.30
2023-05-19T14:16:22.066Z,1.80
2023-05-19T14:18:49.390Z,2.20
2023-05-19T14:21:16.401Z,1.92
2023-05-19T14:23:43.246Z,1.77
2023-05-19T14:26:10.212Z,1.67
2023-05-19T14:28:37.448Z,2.22
2023-05-19T14:31:04.771Z,1.52
2023-05-19T14:33:35.183Z,2.35
2023-05-19T14:36:02.947Z,1.88
2023-05-19T14:38:30.177Z,1.80
2023-05-19T14:40:57.502Z,2.08
2023-05-19T14:43:24.968Z,3.17
2023-05-19T14:45:52.340Z,2.47
2023-05-19T14:48:19.597Z,2.03
2023-05-19T14:50:49.816Z,2.50
2023-05-19T14:53:17.162Z,2.50
2023-05-19T14:55:44.648Z,3.08
2023-05-19T14:58:26.694Z,2.13
2023-05-19T15:00:55.681Z,1.83
2023-05-19T15:03:23.351Z,1.90
2023-05-19T15:05:50.650Z,1.92
2023-05-19T15:08:17.828Z,2.10
2023-05-19T15:10:48.872Z,1.75
2023-05-19T15:13:18.930Z,1.75
2023-05-19T15:15:46.367Z,2.00
2023-05-19T15:18:16.267Z,2.05
2023-05-19T15:20:46.451Z,1.85
2023-05-19T15:23:13.723Z,1.88
2023-05-19T15:25:40.948Z,1.63
2023-05-19T15:28:08.373Z,2.65
2023-05-19T15:30:36.010Z,1.80
2023-05-19T15:33:03.391Z,1.80
2023-05-19T15:35:30.722Z,1.98
2023-05-19T15:37:57.890Z,1.75
2023-05-19T15:40:25.620Z,2.05
2023-05-19T15:42:52.874Z,2.30
2023-05-19T15:45:20.095Z,1.98
2023-05-19T15:47:48.537Z,1.73
2023-05-19T15:50:16.868Z,2.00
2023-05-19T15:52:44.249Z,2.17
2023-05-19T15:55:11.461Z,3.05
2023-05-19T15:57:38.669Z,1.83
2023-05-19T16:00:06.400Z,1.90
2023-05-19T16:02:33.922Z,2.00
2023-05-19T16:05:01.191Z,1.90
2023-05-19T16:07:28.417Z,1.80
2023-05-19T16:09:55.749Z,2.05
2023-05-19T16:12:24.253Z,2.05
2023-05-19T16:14:51.430Z,2.28
2023-05-19T16:17:18.992Z,2.22
2023-05-19T16:19:46.537Z,2.15
2023-05-19T16:22:13.873Z,1.90
2023-05-19T16:24:41.124Z,2.05
2023-05-19T16:27:08.537Z,1.88
2023-05-19T16:29:35.877Z,2.05
2023-05-19T16:32:03.159Z,2.03
2023-05-19T16:34:30.829Z,2.03
2023-05-19T16:36:58.090Z,2.63
2023-05-19T16:39:25.457Z,2.17
2023-05-19T16:41:53.204Z,2.35
2023-05-19T16:44:20.790Z,1.85
2023-05-19T16:46:47.995Z,2.38
2023-05-19T16:49:15.300Z,1.80
2023-05-19T16:51:42.537Z,2.80
2023-05-19T16:54:09.826Z,3.55
2023-05-19T16:56:37.057Z,2.13
2023-05-19T16:59:04.623Z,2.15
2023-05-19T17:01:32.034Z,2.90
2023-05-19T17:03:59.273Z,3.30
2023-05-19T17:06:26.576Z,2.13
2023-05-19T17:08:53.836Z,2.53
2023-05-19T17:11:21.514Z,2.35
2023-05-19T17:13:48.737Z,2.38
2023-05-19T17:16:16.057Z,2.30
2023-05-19T17:18:43.945Z,2.55
2023-05-19T17:21:11.656Z,3.10
2023-05-19T17:23:38.904Z,2.58
2023-05-19T17:26:06.168Z,2.70
2023-05-19T17:28:33.465Z,2.05
2023-05-19T17:31:01.557Z,1.80
2023-05-19T17:33:28.780Z,1.85
2023-05-19T17:35:56.113Z,2.20
2023-05-19T17:38:23.296Z,4.78
2023-05-19T17:40:50.586Z,2.42
2023-05-19T17:43:17.894Z,4.45
2023-05-19T17:45:45.244Z,2.60
2023-05-19T17:48:12.442Z,2.10
2023-05-19T17:50:39.651Z,8.02
2023-05-19T17:53:06.967Z,2.65
2023-05-19T17:55:34.410Z,2.13
2023-05-19T17:58:01.753Z,16.83
2023-05-19T18:00:29.139Z,9.65
2023-05-19T18:02:57.437Z,3.42
2023-05-19T18:05:25.124Z,3.28
2023-05-19T18:07:52.518Z,1.50
2023-05-19T18:10:19.819Z,2.95
2023-05-19T18:12:47.008Z,2.67
2023-05-19T18:15:14.250Z,1.60
2023-05-19T18:17:41.507Z,2.10
2023-05-19T18:20:08.915Z,2.20
2023-05-19T18:22:36.518Z,5.75
2023-05-19T18:25:03.734Z,4.70
2023-05-19T18:27:31.411Z,2.58
2023-05-19T18:29:58.672Z,2.00
2023-05-19T18:32:25.996Z,3.15
2023-05-19T18:34:53.216Z,10.05
2023-05-19T18:37:20.692Z,1.60
2023-05-19T18:39:47.928Z,3.00
2023-05-19T18:42:15.135Z,2.30
2023-05-19T18:44:42.439Z,2.85
2023-05-19T18:47:09.820Z,2.28
2023-05-19T18:49:37.007Z,2.50
2023-05-19T18:52:04.274Z,2.72
2023-05-19T18:54:32.534Z,2.22
2023-05-19T18:57:00.061Z,2.33
2023-05-19T18:59:27.617Z,2.17
2023-05-19T19:01:54.976Z,2.55
2023-05-19T19:04:22.449Z,1.98
2023-05-19T19:06:49.875Z,1.85
2023-05-19T19:09:17.133Z,2.15
2023-05-19T19:11:44.396Z,3.88
2023-05-19T19:14:11.672Z,2.30
2023-05-19T19:16:38.937Z,1.75
2023-05-19T19:19:06.379Z,5.47
2023-05-19T19:21:33.715Z,2.33
2023-05-19T19:24:02.114Z,2.53
2023-05-19T19:26:29.304Z,2.65
2023-05-19T19:28:57.008Z,2.40
2023-05-19T19:31:25.903Z,1.55
2023-05-19T19:33:53.310Z,2.00
2023-05-19T19:36:20.659Z,1.85
2023-05-19T19:38:47.866Z,4.10
2023-05-19T19:41:15.070Z,2.25
2023-05-19T19:43:42.277Z,4.18
2023-05-19T19:46:09.529Z,3.20
2023-05-19T19:48:36.944Z,2.30
2023-05-19T19:51:04.186Z,2.53
2023-05-19T19:53:31.395Z,2.70
2023-05-19T19:55:59.137Z,2.95
2023-05-19T19:58:26.700Z,2.70
2023-05-19T20:00:57.715Z,2.33
2023-05-19T20:03:25.226Z,2.53
2023-05-19T20:05:52.740Z,2.45
2023-05-19T20:08:20.187Z,2.88
2023-05-19T20:10:50.592Z,3.25
2023-05-19T20:13:18.098Z,7.40
2023-05-19T20:15:46.750Z,3.60
2023-05-19T20:18:14.014Z,3.33
2023-05-19T20:20:41.552Z,2.85
2023-05-19T20:23:09.251Z,3.90
2023-05-19T20:25:58.542Z,2.85
2023-05-19T20:28:30.051Z,10.85
2023-05-19T20:30:57.263Z,5.05
2023-05-19T20:33:24.463Z,2.70
2023-05-19T20:35:51.819Z,3.25
2023-05-19T20:38:19.015Z,5.00
2023-05-19T20:40:46.202Z,2.90
2023-05-19T20:43:13.607Z,2.30
2023-05-19T20:45:43.320Z,2.30
2023-05-19T20:48:11.358Z,2.05
2023-05-19T20:50:39.995Z,2.17
2023-05-19T20:53:07.561Z,2.47
2023-05-19T20:55:37.970Z,2.40
2023-05-19T20:58:05.492Z,2.45
2023-05-19T21:00:33.236Z,5.55
2023-05-19T21:03:01.496Z,6.25
2023-05-19T21:05:29.031Z,4.65
2023-05-19T21:07:56.321Z,2.35
2023-05-19T21:10:23.670Z,2.30
2023-05-19T21:12:52.058Z,2.42
2023-05-19T21:15:19.364Z,2.30
2023-05-19T21:17:46.825Z,2.10
2023-05-19T21:20:14.107Z,1.90
2023-05-19T21:22:41.316Z,2.13
2023-05-19T21:25:08.678Z,2.30
2023-05-19T21:27:36.341Z,2.47
2023-05-19T21:30:03.669Z,2.90
2023-05-19T21:32:31.220Z,2.45
2023-05-19T21:34:58.484Z,2.30
2023-05-19T21:37:25.847Z,4.28
2023-05-19T21:39:53.031Z,4.32
2023-05-19T21:42:20.277Z,3.20
2023-05-19T21:44:47.558Z,2.47
2023-05-19T21:47:14.760Z,2.70
2023-05-19T21:49:42.029Z,1.98
2023-05-19T21:52:09.327Z,2.03
2023-05-19T21:54:36.619Z,2.00
2023-05-19T21:57:03.965Z,1.92
2023-05-19T21:59:31.363Z,2.90
2023-05-19T22:01:58.845Z,3.55
2023-05-19T22:04:27.084Z,7.32
2023-05-19T22:06:54.275Z,3.78
2023-05-19T22:09:21.672Z,2.47
2023-05-19T22:11:48.923Z,2.50
2023-05-19T22:14:16.215Z,1.98
2023-05-19T22:16:43.517Z,2.38
2023-05-19T22:19:11.799Z,2.13
2023-05-19T22:21:39.027Z,2.50
2023-05-19T22:24:06.469Z,2.30
2023-05-19T22:26:35.722Z,2.70
2023-05-19T22:29:03.407Z,2.40
2023-05-19T22:31:30.583Z,3.35
2023-05-19T22:33:57.768Z,2.30
2023-05-19T22:36:24.975Z,2.30
2023-05-19T22:38:52.168Z,2.35
2023-05-19T22:41:19.340Z,2.42
2023-05-19T22:43:46.607Z,2.72
2023-05-19T22:46:13.909Z,2.67
2023-05-19T22:48:41.261Z,2.55
2023-05-19T22:51:08.565Z,2.60
2023-05-19T22:53:35.816Z,4.75
2023-05-19T22:56:03.053Z,2.65
2023-05-19T22:58:30.266Z,2.80
2023-05-19T23:00:57.892Z,2.78
2023-05-19T23:03:25.133Z,2.97
2023-05-19T23:05:52.328Z,4.20
2023-05-19T23:08:19.510Z,3.53
2023-05-19T23:10:46.683Z,3.00
2023-05-19T23:13:13.890Z,2.67
2023-05-19T23:15:41.049Z,2.83
2023-05-19T23:18:08.731Z,2.42
2023-05-19T23:20:36.259Z,2.75
2023-05-19T23:23:03.452Z,1.92
2023-05-19T23:25:30.694Z,2.20
2023-05-19T23:27:57.990Z,2.40
2023-05-19T23:30:25.293Z,2.33
2023-05-19T23:32:53.033Z,2.08
2023-05-19T23:35:20.597Z,2.08
2023-05-19T23:37:47.814Z,2.38
2023-05-19T23:40:15.870Z,2.40
2023-05-19T23:42:44.680Z,2.50
2023-05-19T23:45:12.070Z,2.10
2023-05-19T23:47:39.366Z,2.95
2023-05-19T23:50:06.812Z,2.42
2023-05-19T23:52:34.038Z,2.60
2023-05-19T23:55:01.291Z,2.38
2023-05-19T23:57:28.492Z,2.15
2023-05-19T23:59:55.810Z,2.37
